NO-0010 weather

Graundalen
Snåsa, Nord-Trøndelag, Norway

Public forecast

Using degrees Celsius for public forecast. Weather courtesy of forecast.io.

METAR (pilot weather report)

Report is more than 2 hours old.

Closest report is Namsos Høknesøra Airport, 39.7 nm (73.5 km) NW. Retrieved 2019/07/22 19:20 UTC (4 hours ago):

ENNM 221920Z 05006KT 9999 FEW015 BKN094 20/16 Q1009

TAF (pilot weather forecast)

Closest forecast is Trondheim Airport Værnes, 57.5 nm (106.5 km) SW. Retrieved 2019/07/22 18:57 UTC (5 hours ago):

TAF ENVA 221700Z 2218/2318 VRB05KT 9999 FEW020 SCT070 BECMG 2302/2305 27010KT -RA BKN012 PROB40 2305/2309 3000 -RADZ BR BKN005 BECMG 2309/2312 FEW020 SCT070 BECMG 2312/2315 VRB05KT